sensor_id;sensor_type;location;lat;lon;timestamp;temperature;humidity
9466;DHT22;4771;48.726;9.006;2023-06-10T00:01:18;19.00;83.60
9466;DHT22;4771;48.726;9.006;2023-06-10T00:03:44;18.90;84.50
9466;DHT22;4771;48.726;9.006;2023-06-10T00:06:13;19.00;85.20
9466;DHT22;4771;48.726;9.006;2023-06-10T00:08:40;18.90;86.00
9466;DHT22;4771;48.726;9.006;2023-06-10T00:11:06;18.90;86.30
9466;DHT22;4771;48.726;9.006;2023-06-10T00:13:33;18.90;85.80
9466;DHT22;4771;48.726;9.006;2023-06-10T00:16:01;18.90;87.50
9466;DHT22;4771;48.726;9.006;2023-06-10T00:18:28;18.90;87.80
9466;DHT22;4771;48.726;9.006;2023-06-10T00:20:56;18.80;87.80
9466;DHT22;4771;48.726;9.006;2023-06-10T00:23:30;18.80;89.60
9466;DHT22;4771;48.726;9.006;2023-06-10T00:25:58;18.80;89.70
9466;DHT22;4771;48.726;9.006;2023-06-10T00:28:25;18.80;90.10
9466;DHT22;4771;48.726;9.006;2023-06-10T00:30:51;18.80;90.40
9466;DHT22;4771;48.726;9.006;2023-06-10T00:33:18;18.80;90.40
9466;DHT22;4771;48.726;9.006;2023-06-10T00:35:45;18.70;90.70
9466;DHT22;4771;48.726;9.006;2023-06-10T00:38:13;18.70;91.30
9466;DHT22;4771;48.726;9.006;2023-06-10T00:40:41;18.70;91.90
9466;DHT22;4771;48.726;9.006;2023-06-10T00:43:09;18.60;92.00
9466;DHT22;4771;48.726;9.006;2023-06-10T00:45:35;18.60;92.30
9466;DHT22;4771;48.726;9.006;2023-06-10T00:48:03;18.50;92.70
9466;DHT22;4771;48.726;9.006;2023-06-10T00:50:31;18.50;92.90
9466;DHT22;4771;48.726;9.006;2023-06-10T00:52:59;18.50;93.40
9466;DHT22;4771;48.726;9.006;2023-06-10T00:55:26;18.50;93.50
9466;DHT22;4771;48.726;9.006;2023-06-10T00:57:55;18.40;93.70
9466;DHT22;4771;48.726;9.006;2023-06-10T01:00:22;18.40;93.80
9466;DHT22;4771;48.726;9.006;2023-06-10T01:02:48;18.50;94.00
9466;DHT22;4771;48.726;9.006;2023-06-10T01:05:18;18.50;94.10
9466;DHT22;4771;48.726;9.006;2023-06-10T01:07:50;18.40;94.70
9466;DHT22;4771;48.726;9.006;2023-06-10T01:10:24;18.40;94.80
9466;DHT22;4771;48.726;9.006;2023-06-10T01:12:58;18.40;95.60
9466;DHT22;4771;48.726;9.006;2023-06-10T01:15:29;18.30;96.10
9466;DHT22;4771;48.726;9.006;2023-06-10T01:17:57;18.30;96.10
9466;DHT22;4771;48.726;9.006;2023-06-10T01:20:25;18.20;96.60
9466;DHT22;4771;48.726;9.006;2023-06-10T01:22:54;18.20;97.10
9466;DHT22;4771;48.726;9.006;2023-06-10T01:25:23;18.10;97.50
9466;DHT22;4771;48.726;9.006;2023-06-10T01:27:55;18.10;98.00
9466;DHT22;4771;48.726;9.006;2023-06-10T01:30:28;18.00;98.40
9466;DHT22;4771;48.726;9.006;2023-06-10T01:32:59;17.90;99.10
9466;DHT22;4771;48.726;9.006;2023-06-10T01:35:28;17.90;99.40
9466;DHT22;4771;48.726;9.006;2023-06-10T01:37:58;17.80;99.90
9466;DHT22;4771;48.726;9.006;2023-06-10T01:40:28;17.80;99.90
9466;DHT22;4771;48.726;9.006;2023-06-10T01:42:56;17.70;99.90
9466;DHT22;4771;48.726;9.006;2023-06-10T01:45:23;17.70;99.90
9466;DHT22;4771;48.726;9.006;2023-06-10T01:47:49;17.60;99.90
9466;DHT22;4771;48.726;9.006;2023-06-10T01:50:16;17.60;99.90
9466;DHT22;4771;48.726;9.006;2023-06-10T01:52:43;17.50;99.90
9466;DHT22;4771;48.726;9.006;2023-06-10T01:55:11;17.50;99.90
9466;DHT22;4771;48.726;9.006;2023-06-10T01:57:38;17.40;99.90
9466;DHT22;4771;48.726;9.006;2023-06-10T02:00:06;17.40;99.90
9466;DHT22;4771;48.726;9.006;2023-06-10T02:02:33;17.30;99.90
9466;DHT22;4771;48.726;9.006;2023-06-10T02:05:00;17.40;99.90
9466;DHT22;4771;48.726;9.006;2023-06-10T02:07:29;17.30;99.90
9466;DHT22;4771;48.726;9.006;2023-06-10T02:09:55;17.30;99.90
9466;DHT22;4771;48.726;9.006;2023-06-10T02:12:24;17.30;99.90
9466;DHT22;4771;48.726;9.006;2023-06-10T02:14:51;17.30;99.90
9466;DHT22;4771;48.726;9.006;2023-06-10T02:17:18;17.20;99.90
9466;DHT22;4771;48.726;9.006;2023-06-10T02:19:45;17.20;99.90
9466;DHT22;4771;48.726;9.006;2023-06-10T02:22:19;17.20;99.90
9466;DHT22;4771;48.726;9.006;2023-06-10T02:24:46;17.10;99.90
9466;DHT22;4771;48.726;9.006;2023-06-10T02:27:14;17.10;99.90
9466;DHT22;4771;48.726;9.006;2023-06-10T02:29:42;17.10;99.90
9466;DHT22;4771;48.726;9.006;2023-06-10T02:32:09;17.10;99.90
9466;DHT22;4771;48.726;9.006;2023-06-10T02:34:35;17.00;99.90
9466;DHT22;4771;48.726;9.006;2023-06-10T02:37:03;17.00;99.90
9466;DHT22;4771;48.726;9.006;2023-06-10T02:39:30;17.00;99.90
9466;DHT22;4771;48.726;9.006;2023-06-10T02:41:57;17.00;99.90
9466;DHT22;4771;48.726;9.006;2023-06-10T02:44:24;17.00;99.90
9466;DHT22;4771;48.726;9.006;2023-06-10T02:46:52;16.90;99.90
9466;DHT22;4771;48.726;9.006;2023-06-10T02:49:19;16.90;99.90
9466;DHT22;4771;48.726;9.006;2023-06-10T02:51:45;16.80;99.90
9466;DHT22;4771;48.726;9.006;2023-06-10T02:54:12;16.80;99.90
9466;DHT22;4771;48.726;9.006;2023-06-10T02:56:39;16.80;99.90
9466;DHT22;4771;48.726;9.006;2023-06-10T02:59:07;16.70;99.90
9466;DHT22;4771;48.726;9.006;2023-06-10T03:01:34;16.70;99.90
9466;DHT22;4771;48.726;9.006;2023-06-10T03:04:03;16.70;99.90
9466;DHT22;4771;48.726;9.006;2023-06-10T03:06:30;16.60;99.90
9466;DHT22;4771;48.726;9.006;2023-06-10T03:08:59;16.60;99.90
9466;DHT22;4771;48.726;9.006;2023-06-10T03:11:26;16.60;99.90
9466;DHT22;4771;48.726;9.006;2023-06-10T03:13:53;16.50;99.90
9466;DHT22;4771;48.726;9.006;2023-06-10T03:16:20;16.50;99.90
9466;DHT22;4771;48.726;9.006;2023-06-10T03:18:48;16.50;99.90
9466;DHT22;4771;48.726;9.006;2023-06-10T03:21:16;16.40;99.90
9466;DHT22;4771;48.726;9.006;2023-06-10T03:23:43;16.40;99.90
9466;DHT22;4771;48.726;9.006;2023-06-10T03:26:11;16.40;99.90
9466;DHT22;4771;48.726;9.006;2023-06-10T03:28:39;16.40;99.90
9466;DHT22;4771;48.726;9.006;2023-06-10T03:31:06;16.40;99.90
9466;DHT22;4771;48.726;9.006;2023-06-10T03:33:33;16.30;99.90
9466;DHT22;4771;48.726;9.006;2023-06-10T03:36:01;16.30;99.90
9466;DHT22;4771;48.726;9.006;2023-06-10T03:38:29;16.30;99.90
9466;DHT22;4771;48.726;9.006;2023-06-10T03:40:56;16.30;99.90
9466;DHT22;4771;48.726;9.006;2023-06-10T03:43:23;16.20;99.90
9466;DHT22;4771;48.726;9.006;2023-06-10T03:45:50;16.20;99.90
9466;DHT22;4771;48.726;9.006;2023-06-10T03:48:17;16.00;99.90
9466;DHT22;4771;48.726;9.006;2023-06-10T03:50:44;16.20;99.90
9466;DHT22;4771;48.726;9.006;2023-06-10T03:53:13;16.10;99.90
9466;DHT22;4771;48.726;9.006;2023-06-10T03:55:41;16.10;99.90
9466;DHT22;4771;48.726;9.006;2023-06-10T03:58:08;16.00;99.90
9466;DHT22;4771;48.726;9.006;2023-06-10T04:00:35;16.00;99.90
9466;DHT22;4771;48.726;9.006;2023-06-10T04:03:07;16.00;99.90
9466;DHT22;4771;48.726;9.006;2023-06-10T04:05:34;16.00;99.90
9466;DHT22;4771;48.726;9.006;2023-06-10T04:08:01;16.00;99.90
9466;DHT22;4771;48.726;9.006;2023-06-10T04:10:28;16.00;99.90
9466;DHT22;4771;48.726;9.006;2023-06-10T04:12:56;16.00;99.90
9466;DHT22;4771;48.726;9.006;2023-06-10T04:15:23;16.00;99.90
9466;DHT22;4771;48.726;9.006;2023-06-10T04:17:50;16.00;99.90
9466;DHT22;4771;48.726;9.006;2023-06-10T04:20:18;16.00;99.90
9466;DHT22;4771;48.726;9.006;2023-06-10T04:22:45;16.00;99.90
9466;DHT22;4771;48.726;9.006;2023-06-10T04:25:12;16.00;99.90
9466;DHT22;4771;48.726;9.006;2023-06-10T04:27:38;16.00;99.90
9466;DHT22;4771;48.726;9.006;2023-06-10T04:30:07;16.00;99.90
9466;DHT22;4771;48.726;9.006;2023-06-10T04:32:34;16.00;99.90
9466;DHT22;4771;48.726;9.006;2023-06-10T04:35:01;16.00;99.90
9466;DHT22;4771;48.726;9.006;2023-06-10T04:37:28;16.10;99.90
9466;DHT22;4771;48.726;9.006;2023-06-10T04:39:55;16.10;99.90
9466;DHT22;4771;48.726;9.006;2023-06-10T04:42:22;16.10;99.90
9466;DHT22;4771;48.726;9.006;2023-06-10T04:44:49;16.20;99.90
9466;DHT22;4771;48.726;9.006;2023-06-10T04:47:17;16.20;99.90
9466;DHT22;4771;48.726;9.006;2023-06-10T04:49:44;16.20;99.90
9466;DHT22;4771;48.726;9.006;2023-06-10T04:52:11;16.30;99.90
9466;DHT22;4771;48.726;9.006;2023-06-10T04:54:39;16.30;99.90
9466;DHT22;4771;48.726;9.006;2023-06-10T04:57:06;16.40;99.90
9466;DHT22;4771;48.726;9.006;2023-06-10T04:59:33;16.40;99.90
9466;DHT22;4771;48.726;9.006;2023-06-10T05:02:03;16.40;99.90
9466;DHT22;4771;48.726;9.006;2023-06-10T05:04:31;16.50;99.90
9466;DHT22;4771;48.726;9.006;2023-06-10T05:06:58;16.50;99.90
9466;DHT22;4771;48.726;9.006;2023-06-10T05:09:25;16.60;99.90
9466;DHT22;4771;48.726;9.006;2023-06-10T05:11:52;16.60;99.90
9466;DHT22;4771;48.726;9.006;2023-06-10T05:14:19;16.70;99.90
9466;DHT22;4771;48.726;9.006;2023-06-10T05:16:47;16.70;99.90
9466;DHT22;4771;48.726;9.006;2023-06-10T05:19:14;16.70;99.90
9466;DHT22;4771;48.726;9.006;2023-06-10T05:21:43;16.80;99.90
9466;DHT22;4771;48.726;9.006;2023-06-10T05:24:10;16.80;99.90
9466;DHT22;4771;48.726;9.006;2023-06-10T05:26:37;16.90;99.90
9466;DHT22;4771;48.726;9.006;2023-06-10T05:29:04;17.00;99.90
9466;DHT22;4771;48.726;9.006;2023-06-10T05:31:31;17.00;99.90
9466;DHT22;4771;48.726;9.006;2023-06-10T05:33:58;17.10;99.90
9466;DHT22;4771;48.726;9.006;2023-06-10T05:36:25;17.20;99.90
9466;DHT22;4771;48.726;9.006;2023-06-10T05:38:54;17.20;99.90
9466;DHT22;4771;48.726;9.006;2023-06-10T05:41:21;17.30;99.90
9466;DHT22;4771;48.726;9.006;2023-06-10T05:43:48;17.30;99.90
9466;DHT22;4771;48.726;9.006;2023-06-10T05:46:15;17.40;99.90
9466;DHT22;4771;48.726;9.006;2023-06-10T05:48:42;17.50;99.90
9466;DHT22;4771;48.726;9.006;2023-06-10T05:51:09;17.50;99.90
9466;DHT22;4771;48.726;9.006;2023-06-10T05:53:36;17.60;99.90
9466;DHT22;4771;48.726;9.006;2023-06-10T05:56:05;17.60;99.90
9466;DHT22;4771;48.726;9.006;2023-06-10T05:58:32;17.70;99.90
9466;DHT22;4771;48.726;9.006;2023-06-10T06:00:59;17.80;99.90
9466;DHT22;4771;48.726;9.006;2023-06-10T06:03:25;17.80;99.90
9466;DHT22;4771;48.726;9.006;2023-06-10T06:05:54;17.90;99.90
9466;DHT22;4771;48.726;9.006;2023-06-10T06:08:21;17.90;99.90
9466;DHT22;4771;48.726;9.006;2023-06-10T06:10:48;18.00;99.90
9466;DHT22;4771;48.726;9.006;2023-06-10T06:13:16;18.10;99.90
9466;DHT22;4771;48.726;9.006;2023-06-10T06:15:43;18.20;99.90
9466;DHT22;4771;48.726;9.006;2023-06-10T06:18:10;18.20;99.90
9466;DHT22;4771;48.726;9.006;2023-06-10T06:20:36;18.30;99.90
9466;DHT22;4771;48.726;9.006;2023-06-10T06:23:03;18.40;99.90
9466;DHT22;4771;48.726;9.006;2023-06-10T06:25:30;18.40;99.90
9466;DHT22;4771;48.726;9.006;2023-06-10T06:27:57;18.50;99.90
9466;DHT22;4771;48.726;9.006;2023-06-10T06:30:25;18.60;99.90
9466;DHT22;4771;48.726;9.006;2023-06-10T06:32:52;18.60;99.90
9466;DHT22;4771;48.726;9.006;2023-06-10T06:35:19;18.70;99.90
9466;DHT22;4771;48.726;9.006;2023-06-10T06:37:46;18.80;99.90
9466;DHT22;4771;48.726;9.006;2023-06-10T06:40:13;18.80;99.90
9466;DHT22;4771;48.726;9.006;2023-06-10T06:42:40;18.90;99.90
9466;DHT22;4771;48.726;9.006;2023-06-10T06:45:07;19.00;99.90
9466;DHT22;4771;48.726;9.006;2023-06-10T06:47:36;19.00;99.90
9466;DHT22;4771;48.726;9.006;2023-06-10T06:50:03;19.10;99.90
9466;DHT22;4771;48.726;9.006;2023-06-10T06:52:30;19.10;99.90
9466;DHT22;4771;48.726;9.006;2023-06-10T06:54:57;19.20;99.90
9466;DHT22;4771;48.726;9.006;2023-06-10T06:57:23;19.30;99.90
9466;DHT22;4771;48.726;9.006;2023-06-10T06:59:50;19.30;99.90
9466;DHT22;4771;48.726;9.006;2023-06-10T07:02:17;19.40;99.90
9466;DHT22;4771;48.726;9.006;2023-06-10T07:04:46;19.40;99.90
9466;DHT22;4771;48.726;9.006;2023-06-10T07:07:15;19.50;99.90
9466;DHT22;4771;48.726;9.006;2023-06-10T07:09:42;19.60;99.90
9466;DHT22;4771;48.726;9.006;2023-06-10T07:12:09;19.60;99.90
9466;DHT22;4771;48.726;9.006;2023-06-10T07:14:36;19.60;99.90
9466;DHT22;4771;48.726;9.006;2023-06-10T07:17:03;19.70;99.90
9466;DHT22;4771;48.726;9.006;2023-06-10T07:19:30;19.70;99.90
9466;DHT22;4771;48.726;9.006;2023-06-10T07:21:58;19.80;99.90
9466;DHT22;4771;48.726;9.006;2023-06-10T07:24:25;19.90;99.90
9466;DHT22;4771;48.726;9.006;2023-06-10T07:26:52;19.90;99.90
9466;DHT22;4771;48.726;9.006;2023-06-10T07:29:19;20.00;99.90
9466;DHT22;4771;48.726;9.006;2023-06-10T07:31:46;20.00;99.90
9466;DHT22;4771;48.726;9.006;2023-06-10T07:34:12;20.10;99.90
9466;DHT22;4771;48.726;9.006;2023-06-10T07:36:39;20.10;99.90
9466;DHT22;4771;48.726;9.006;2023-06-10T07:39:07;20.10;99.90
9466;DHT22;4771;48.726;9.006;2023-06-10T07:41:35;20.20;99.90
9466;DHT22;4771;48.726;9.006;2023-06-10T07:44:02;20.20;99.90
9466;DHT22;4771;48.726;9.006;2023-06-10T07:46:29;20.20;99.90
9466;DHT22;4771;48.726;9.006;2023-06-10T07:48:56;20.30;99.90
9466;DHT22;4771;48.726;9.006;2023-06-10T07:51:23;20.40;99.90
9466;DHT22;4771;48.726;9.006;2023-06-10T07:53:50;20.50;99.90
9466;DHT22;4771;48.726;9.006;2023-06-10T07:56:18;20.60;99.90
9466;DHT22;4771;48.726;9.006;2023-06-10T07:58:47;20.60;99.90
9466;DHT22;4771;48.726;9.006;2023-06-10T08:01:17;20.70;99.90
9466;DHT22;4771;48.726;9.006;2023-06-10T08:03:50;20.80;99.90
9466;DHT22;4771;48.726;9.006;2023-06-10T08:06:17;20.90;99.90
9466;DHT22;4771;48.726;9.006;2023-06-10T08:08:44;20.90;99.90
9466;DHT22;4771;48.726;9.006;2023-06-10T08:11:11;21.00;99.90
9466;DHT22;4771;48.726;9.006;2023-06-10T08:13:39;21.00;99.90
9466;DHT22;4771;48.726;9.006;2023-06-10T08:16:06;21.10;99.90
9466;DHT22;4771;48.726;9.006;2023-06-10T08:18:33;21.10;99.90
9466;DHT22;4771;48.726;9.006;2023-06-10T08:21:00;21.20;99.90
9466;DHT22;4771;48.726;9.006;2023-06-10T08:23:27;21.20;99.90
9466;DHT22;4771;48.726;9.006;2023-06-10T08:25:54;21.30;99.90
9466;DHT22;4771;48.726;9.006;2023-06-10T08:28:21;21.40;99.90
9466;DHT22;4771;48.726;9.006;2023-06-10T08:30:49;21.40;99.90
9466;DHT22;4771;48.726;9.006;2023-06-10T08:33:16;21.40;99.90
9466;DHT22;4771;48.726;9.006;2023-06-10T08:35:43;21.50;99.90
9466;DHT22;4771;48.726;9.006;2023-06-10T08:38:10;21.50;99.90
9466;DHT22;4771;48.726;9.006;2023-06-10T08:40:37;21.60;99.90
9466;DHT22;4771;48.726;9.006;2023-06-10T08:43:06;21.60;99.90
9466;DHT22;4771;48.726;9.006;2023-06-10T08:45:35;21.70;99.90
9466;DHT22;4771;48.726;9.006;2023-06-10T08:48:04;21.70;99.90
9466;DHT22;4771;48.726;9.006;2023-06-10T08:50:34;21.80;99.90
9466;DHT22;4771;48.726;9.006;2023-06-10T08:53:05;21.90;99.90
9466;DHT22;4771;48.726;9.006;2023-06-10T08:55:33;22.00;99.90
9466;DHT22;4771;48.726;9.006;2023-06-10T08:58:02;22.00;99.90
9466;DHT22;4771;48.726;9.006;2023-06-10T09:00:30;22.00;99.90
9466;DHT22;4771;48.726;9.006;2023-06-10T09:02:58;22.10;99.90
9466;DHT22;4771;48.726;9.006;2023-06-10T09:05:27;22.20;99.90
9466;DHT22;4771;48.726;9.006;2023-06-10T09:07:57;22.20;99.90
9466;DHT22;4771;48.726;9.006;2023-06-10T09:10:24;22.30;99.90
9466;DHT22;4771;48.726;9.006;2023-06-10T09:12:51;22.30;99.90
9466;DHT22;4771;48.726;9.006;2023-06-10T09:15:18;22.30;99.90
9466;DHT22;4771;48.726;9.006;2023-06-10T09:17:45;22.30;99.90
9466;DHT22;4771;48.726;9.006;2023-06-10T09:20:12;22.40;99.90
9466;DHT22;4771;48.726;9.006;2023-06-10T09:22:41;22.40;99.90
9466;DHT22;4771;48.726;9.006;2023-06-10T09:25:10;22.40;99.90
9466;DHT22;4771;48.726;9.006;2023-06-10T09:27:46;22.50;99.90
9466;DHT22;4771;48.726;9.006;2023-06-10T09:30:26;22.70;99.90
9466;DHT22;4771;48.726;9.006;2023-06-10T09:32:53;22.70;99.90
9466;DHT22;4771;48.726;9.006;2023-06-10T09:35:22;22.90;99.90
9466;DHT22;4771;48.726;9.006;2023-06-10T09:37:51;22.80;99.90
9466;DHT22;4771;48.726;9.006;2023-06-10T09:40:18;22.90;99.90
9466;DHT22;4771;48.726;9.006;2023-06-10T09:42:45;22.80;99.90
9466;DHT22;4771;48.726;9.006;2023-06-10T09:45:14;22.90;99.90
9466;DHT22;4771;48.726;9.006;2023-06-10T09:47:41;23.00;99.90
9466;DHT22;4771;48.726;9.006;2023-06-10T09:50:09;23.00;99.90
9466;DHT22;4771;48.726;9.006;2023-06-10T09:52:37;23.00;99.90
9466;DHT22;4771;48.726;9.006;2023-06-10T09:55:08;22.90;99.90
9466;DHT22;4771;48.726;9.006;2023-06-10T09:57:36;22.90;99.90
9466;DHT22;4771;48.726;9.006;2023-06-10T10:00:05;22.80;99.90
9466;DHT22;4771;48.726;9.006;2023-06-10T10:02:44;22.90;99.90
9466;DHT22;4771;48.726;9.006;2023-06-10T10:05:13;22.90;99.90
9466;DHT22;4771;48.726;9.006;2023-06-10T10:07:40;23.00;99.90
9466;DHT22;4771;48.726;9.006;2023-06-10T10:10:09;23.10;99.90
9466;DHT22;4771;48.726;9.006;2023-06-10T10:12:38;23.20;99.50
9466;DHT22;4771;48.726;9.006;2023-06-10T10:15:06;23.20;99.90
9466;DHT22;4771;48.726;9.006;2023-06-10T10:17:34;23.30;99.90
9466;DHT22;4771;48.726;9.006;2023-06-10T10:20:27;23.30;99.50
9466;DHT22;4771;48.726;9.006;2023-06-10T10:22:56;23.40;99.80
9466;DHT22;4771;48.726;9.006;2023-06-10T10:25:27;23.60;97.90
9466;DHT22;4771;48.726;9.006;2023-06-10T10:27:57;23.70;97.60
9466;DHT22;4771;48.726;9.006;2023-06-10T10:30:25;23.80;97.30
9466;DHT22;4771;48.726;9.006;2023-06-10T10:32:57;23.90;96.70
9466;DHT22;4771;48.726;9.006;2023-06-10T10:35:25;23.90;96.20
9466;DHT22;4771;48.726;9.006;2023-06-10T10:37:53;24.00;95.60
9466;DHT22;4771;48.726;9.006;2023-06-10T10:40:21;24.10;95.90
9466;DHT22;4771;48.726;9.006;2023-06-10T10:42:51;24.20;95.40
9466;DHT22;4771;48.726;9.006;2023-06-10T10:45:18;24.30;94.00
9466;DHT22;4771;48.726;9.006;2023-06-10T10:47:45;24.20;94.40
9466;DHT22;4771;48.726;9.006;2023-06-10T10:50:13;24.10;92.00
9466;DHT22;4771;48.726;9.006;2023-06-10T10:52:51;24.00;91.80
9466;DHT22;4771;48.726;9.006;2023-06-10T10:55:19;23.90;92.40
9466;DHT22;4771;48.726;9.006;2023-06-10T10:57:55;23.90;93.40
9466;DHT22;4771;48.726;9.006;2023-06-10T11:00:29;24.10;93.70
9466;DHT22;4771;48.726;9.006;2023-06-10T11:03:04;24.20;92.90
9466;DHT22;4771;48.726;9.006;2023-06-10T11:05:35;24.30;92.50
9466;DHT22;4771;48.726;9.006;2023-06-10T11:08:03;24.50;93.00
9466;DHT22;4771;48.726;9.006;2023-06-10T11:10:31;24.70;91.60
9466;DHT22;4771;48.726;9.006;2023-06-10T11:12:59;24.90;90.60
9466;DHT22;4771;48.726;9.006;2023-06-10T11:15:27;25.10;89.70
9466;DHT22;4771;48.726;9.006;2023-06-10T11:18:14;25.20;90.70
9466;DHT22;4771;48.726;9.006;2023-06-10T11:20:51;25.40;91.20
9466;DHT22;4771;48.726;9.006;2023-06-10T11:23:35;25.40;91.10
9466;DHT22;4771;48.726;9.006;2023-06-10T11:26:29;25.50;90.90
9466;DHT22;4771;48.726;9.006;2023-06-10T11:29:07;25.60;90.60
9466;DHT22;4771;48.726;9.006;2023-06-10T11:31:41;25.70;87.10
9466;DHT22;4771;48.726;9.006;2023-06-10T11:34:08;25.70;84.40
9466;DHT22;4771;48.726;9.006;2023-06-10T11:36:38;25.80;85.30
9466;DHT22;4771;48.726;9.006;2023-06-10T11:39:08;25.80;87.40
9466;DHT22;4771;48.726;9.006;2023-06-10T11:41:36;25.80;86.20
9466;DHT22;4771;48.726;9.006;2023-06-10T11:44:07;25.90;87.60
9466;DHT22;4771;48.726;9.006;2023-06-10T11:46:34;25.80;83.20
9466;DHT22;4771;48.726;9.006;2023-06-10T11:49:02;25.90;84.50
9466;DHT22;4771;48.726;9.006;2023-06-10T11:51:34;25.80;84.10
9466;DHT22;4771;48.726;9.006;2023-06-10T11:54:01;25.80;83.00
9466;DHT22;4771;48.726;9.006;2023-06-10T11:56:29;25.80;84.20
9466;DHT22;4771;48.726;9.006;2023-06-10T11:58:57;25.60;84.30
9466;DHT22;4771;48.726;9.006;2023-06-10T12:01:28;25.50;79.30
9466;DHT22;4771;48.726;9.006;2023-06-10T12:04:02;25.40;82.00
9466;DHT22;4771;48.726;9.006;2023-06-10T12:06:38;25.40;81.10
9466;DHT22;4771;48.726;9.006;2023-06-10T12:09:05;25.60;79.90
9466;DHT22;4771;48.726;9.006;2023-06-10T12:11:32;25.70;78.80
9466;DHT22;4771;48.726;9.006;2023-06-10T12:13:59;25.80;81.10
9466;DHT22;4771;48.726;9.006;2023-06-10T12:16:30;25.90;81.00
9466;DHT22;4771;48.726;9.006;2023-06-10T12:19:01;25.90;78.40
9466;DHT22;4771;48.726;9.006;2023-06-10T12:21:30;25.80;74.70
9466;DHT22;4771;48.726;9.006;2023-06-10T12:24:01;25.70;77.00
9466;DHT22;4771;48.726;9.006;2023-06-10T12:26:37;25.70;79.40
9466;DHT22;4771;48.726;9.006;2023-06-10T12:29:22;25.80;80.60
9466;DHT22;4771;48.726;9.006;2023-06-10T12:31:56;26.00;76.10
9466;DHT22;4771;48.726;9.006;2023-06-10T12:34:34;26.20;78.20
9466;DHT22;4771;48.726;9.006;2023-06-10T12:37:02;26.30;74.90
9466;DHT22;4771;48.726;9.006;2023-06-10T12:39:30;26.30;76.00
9466;DHT22;4771;48.726;9.006;2023-06-10T12:41:57;26.30;74.40
9466;DHT22;4771;48.726;9.006;2023-06-10T12:44:34;26.20;74.60
9466;DHT22;4771;48.726;9.006;2023-06-10T12:47:08;26.20;72.10
9466;DHT22;4771;48.726;9.006;2023-06-10T12:49:38;26.10;70.70
9466;DHT22;4771;48.726;9.006;2023-06-10T12:52:05;25.90;70.10
9466;DHT22;4771;48.726;9.006;2023-06-10T12:54:32;25.70;70.40
9466;DHT22;4771;48.726;9.006;2023-06-10T12:57:00;25.60;74.20
9466;DHT22;4771;48.726;9.006;2023-06-10T12:59:27;25.50;72.10
9466;DHT22;4771;48.726;9.006;2023-06-10T13:01:54;25.40;70.60
9466;DHT22;4771;48.726;9.006;2023-06-10T13:04:23;25.30;72.40
9466;DHT22;4771;48.726;9.006;2023-06-10T13:06:49;25.20;69.30
9466;DHT22;4771;48.726;9.006;2023-06-10T13:09:16;25.30;68.80
9466;DHT22;4771;48.726;9.006;2023-06-10T13:11:43;25.50;68.00
9466;DHT22;4771;48.726;9.006;2023-06-10T13:14:10;25.70;71.90
9466;DHT22;4771;48.726;9.006;2023-06-10T13:16:37;25.80;69.60
9466;DHT22;4771;48.726;9.006;2023-06-10T13:19:05;25.80;68.00
9466;DHT22;4771;48.726;9.006;2023-06-10T13:21:33;25.80;67.40
9466;DHT22;4771;48.726;9.006;2023-06-10T13:24:00;25.80;67.80
9466;DHT22;4771;48.726;9.006;2023-06-10T13:26:27;25.60;67.20
9466;DHT22;4771;48.726;9.006;2023-06-10T13:28:54;25.60;68.70
9466;DHT22;4771;48.726;9.006;2023-06-10T13:31:21;25.50;67.90
9466;DHT22;4771;48.726;9.006;2023-06-10T13:33:48;25.40;69.20
9466;DHT22;4771;48.726;9.006;2023-06-10T13:36:15;25.50;70.60
9466;DHT22;4771;48.726;9.006;2023-06-10T13:38:43;25.50;69.60
9466;DHT22;4771;48.726;9.006;2023-06-10T13:41:10;25.70;67.30
9466;DHT22;4771;48.726;9.006;2023-06-10T13:43:38;26.00;69.00
9466;DHT22;4771;48.726;9.006;2023-06-10T13:46:04;26.10;68.00
9466;DHT22;4771;48.726;9.006;2023-06-10T13:48:31;26.30;68.00
9466;DHT22;4771;48.726;9.006;2023-06-10T13:50:58;26.40;64.70
9466;DHT22;4771;48.726;9.006;2023-06-10T13:53:26;26.60;59.30
9466;DHT22;4771;48.726;9.006;2023-06-10T13:55:54;26.70;62.80
9466;DHT22;4771;48.726;9.006;2023-06-10T13:58:21;26.90;60.80
9466;DHT22;4771;48.726;9.006;2023-06-10T14:00:48;27.10;58.90
9466;DHT22;4771;48.726;9.006;2023-06-10T14:03:14;27.20;59.30
9466;DHT22;4771;48.726;9.006;2023-06-10T14:05:41;27.40;56.50
9466;DHT22;4771;48.726;9.006;2023-06-10T14:08:08;27.50;55.90
9466;DHT22;4771;48.726;9.006;2023-06-10T14:10:35;27.50;56.50
9466;DHT22;4771;48.726;9.006;2023-06-10T14:13:03;27.60;54.40
9466;DHT22;4771;48.726;9.006;2023-06-10T14:15:30;27.60;53.40
9466;DHT22;4771;48.726;9.006;2023-06-10T14:17:57;27.60;54.50
9466;DHT22;4771;48.726;9.006;2023-06-10T14:20:24;27.40;54.20
9466;DHT22;4771;48.726;9.006;2023-06-10T14:22:52;27.30;53.50
9466;DHT22;4771;48.726;9.006;2023-06-10T14:25:19;27.20;55.90
9466;DHT22;4771;48.726;9.006;2023-06-10T14:27:46;27.20;54.60
9466;DHT22;4771;48.726;9.006;2023-06-10T14:30:14;27.10;54.10
9466;DHT22;4771;48.726;9.006;2023-06-10T14:32:41;27.10;52.30
9466;DHT22;4771;48.726;9.006;2023-06-10T14:35:08;27.10;53.80
9466;DHT22;4771;48.726;9.006;2023-06-10T14:37:36;27.00;55.30
9466;DHT22;4771;48.726;9.006;2023-06-10T14:40:04;27.00;53.50
9466;DHT22;4771;48.726;9.006;2023-06-10T14:42:31;27.10;53.80
9466;DHT22;4771;48.726;9.006;2023-06-10T14:44:58;27.10;54.80
9466;DHT22;4771;48.726;9.006;2023-06-10T14:47:26;27.20;53.50
9466;DHT22;4771;48.726;9.006;2023-06-10T14:49:53;27.30;52.90
9466;DHT22;4771;48.726;9.006;2023-06-10T14:52:20;27.40;51.80
9466;DHT22;4771;48.726;9.006;2023-06-10T14:54:47;27.40;50.00
9466;DHT22;4771;48.726;9.006;2023-06-10T14:57:14;27.40;50.50
9466;DHT22;4771;48.726;9.006;2023-06-10T14:59:41;27.40;50.40
9466;DHT22;4771;48.726;9.006;2023-06-10T15:02:08;27.30;51.00
9466;DHT22;4771;48.726;9.006;2023-06-10T15:04:36;27.40;54.80
9466;DHT22;4771;48.726;9.006;2023-06-10T15:07:03;27.40;50.20
9466;DHT22;4771;48.726;9.006;2023-06-10T15:09:30;27.50;51.90
9466;DHT22;4771;48.726;9.006;2023-06-10T15:11:57;27.50;49.80
9466;DHT22;4771;48.726;9.006;2023-06-10T15:14:24;27.50;50.60
9466;DHT22;4771;48.726;9.006;2023-06-10T15:16:52;27.50;50.80
9466;DHT22;4771;48.726;9.006;2023-06-10T15:19:19;27.50;51.40
9466;DHT22;4771;48.726;9.006;2023-06-10T15:21:47;27.50;52.80
9466;DHT22;4771;48.726;9.006;2023-06-10T15:24:14;27.50;51.10
9466;DHT22;4771;48.726;9.006;2023-06-10T15:26:41;27.40;51.30
9466;DHT22;4771;48.726;9.006;2023-06-10T15:29:07;27.20;50.90
9466;DHT22;4771;48.726;9.006;2023-06-10T15:31:34;27.20;51.00
9466;DHT22;4771;48.726;9.006;2023-06-10T15:34:02;27.10;52.30
9466;DHT22;4771;48.726;9.006;2023-06-10T15:36:29;27.20;50.90
9466;DHT22;4771;48.726;9.006;2023-06-10T15:39:02;27.20;51.20
9466;DHT22;4771;48.726;9.006;2023-06-10T15:41:29;27.10;48.90
9466;DHT22;4771;48.726;9.006;2023-06-10T15:43:56;27.10;50.10
9466;DHT22;4771;48.726;9.006;2023-06-10T15:46:25;27.00;50.60
9466;DHT22;4771;48.726;9.006;2023-06-10T15:48:52;27.00;51.20
9466;DHT22;4771;48.726;9.006;2023-06-10T15:51:20;27.00;51.50
9466;DHT22;4771;48.726;9.006;2023-06-10T15:53:46;27.00;51.50
9466;DHT22;4771;48.726;9.006;2023-06-10T15:56:15;26.90;50.00
9466;DHT22;4771;48.726;9.006;2023-06-10T15:58:41;26.80;51.10
9466;DHT22;4771;48.726;9.006;2023-06-10T16:01:08;26.70;51.30
9466;DHT22;4771;48.726;9.006;2023-06-10T16:03:36;26.60;51.50
9466;DHT22;4771;48.726;9.006;2023-06-10T16:06:03;26.40;52.10
9466;DHT22;4771;48.726;9.006;2023-06-10T16:08:30;26.30;52.30